KFLO/FLO METAR and TAF weather

Enter ICAO airport designator
Station Type Date Time Source
KFLO METAR 2021/09/19 12:53 UTC NOAA

KFLO 191253Z 00000KT 10SM CLR 24/21 A3013 RMK AO2 SLP199 T02440211


Station Type Date Time Source
KFLO Decoded METAR 2021/09/19 12:53 UTC NOAA

FLORENCE REGIONAL AIRPORT, SC, United States (KFLO) 34-11N 079-44W 44M
Sep 19, 2021 - 08:53 AM EDT / 2021.09.19 1253 UTC
Wind: Calm:0
Visibility: 10 mile(s):0
Sky conditions: clear
Temperature: 75.9 F (24.4 C)
Dew Point: 70.0 F (21.1 C)
Relative Humidity: 81%
Pressure (altimeter): 30.13 in. Hg (1020 hPa)
ob: KFLO 191253Z 00000KT 10SM CLR 24/21 A3013 RMK AO2 SLP199 T02440211
cycle: 13

Station Type Date Time Source
KFLO TAF 2021/09/19 12:58 UTC NOAA

TAF KFLO 191156Z 1912/2012 VRB03KT 4SM BR SCT250
TEMPO 1912/1913 6SM BR
FM191300 07005KT P6SM SCT250
FM191700 10007KT P6SM BKN050
FM200000 09004KT P6SM SCT250

Example: see airport list